.
WxDataArchive / Data Records for 2009-06-07
2009-06-06 June 2009 2009-06-08

Data Records for Sunday, 07 June 2009

Time	Temp	Chill	HIndex	Humid	Dewpt	 Wind 	HiWind	WindDir	Rain 	Barom 
-----	----	-----	------	-----	-----	------	------	-------	-----	----- 
00:00	70.8	70.8	70.8	53	52.8	0	2	90	0.00	29.936 
00:05	70.8	70.8	70.8	53	52.8	0	1	90	0.00	29.936 
00:10	70.6	70.6	70.6	53	52.6	0	1	90	0.00	29.936 
00:15	70.4	70.4	70.4	53	52.4	0	0	---	0.00	29.937 
00:20	70.3	70.3	70.3	53	52.3	0	0	---	0.00	29.937 
00:25	70.1	70.1	70.1	53	52.2	0	0	---	0.00	29.937 
00:30	69.9	69.9	69.9	54	52.5	0	0	---	0.00	29.938 
00:35	69.8	69.8	69.8	54	52.4	0	1	90	0.00	29.938 
00:40	69.6	69.6	69.6	54	52.2	0	0	---	0.00	29.938 
00:45	69.4	69.4	69.4	54	52.0	0	1	90	0.00	29.940 
00:50	69.4	69.4	69.4	55	52.5	0	2	90	0.00	29.940 
00:55	69.3	69.3	69.3	55	52.4	0	0	---	0.00	29.940 
01:00	69.3	69.3	69.3	55	52.4	0	1	90	0.00	29.938 
01:05	69.1	69.1	69.1	55	52.2	0	1	90	0.00	29.938 
01:10	69.1	69.1	69.1	56	52.7	0	0	---	0.00	29.938 
01:15	69.1	69.1	69.1	56	52.7	0	1	90	0.00	29.942 
01:20	69.1	69.1	69.1	57	53.2	0	1	90	0.00	29.942 
01:25	68.9	68.9	68.9	56	52.5	0	1	90	0.00	29.942 
01:30	68.9	68.9	68.9	56	52.5	0	0	---	0.00	29.945 
01:35	68.8	68.8	68.8	56	52.5	0	0	---	0.00	29.945 
01:40	68.8	68.8	68.8	56	52.5	0	1	90	0.00	29.945 
01:45	68.8	68.8	68.8	57	52.9	0	0	---	0.00	29.944 
01:50	68.6	68.6	68.6	57	52.7	0	1	90	0.00	29.944 
01:55	68.6	68.6	68.6	57	52.7	0	1	90	0.00	29.944 
02:00	68.4	68.4	68.4	57	52.6	0	1	90	0.00	29.946 
02:05	68.4	68.4	68.4	57	52.6	0	0	---	0.00	29.946 
02:10	68.3	68.3	68.3	58	52.9	0	0	---	0.00	29.946 
02:15	68.3	68.3	68.3	58	52.9	0	0	---	0.00	29.941 
02:20	68.1	68.1	68.1	58	52.8	0	0	---	0.00	29.941 
02:25	68.1	68.1	68.1	58	52.8	0	0	---	0.00	29.941 
02:30	67.9	67.9	67.9	58	52.6	0	0	---	0.00	29.939 
02:35	67.8	67.8	67.8	59	52.9	0	0	---	0.00	29.939 
02:40	67.8	67.8	67.8	60	53.4	0	0	---	0.00	29.939 
02:45	67.6	67.6	67.6	60	53.2	0	0	---	0.00	29.935 
02:50	67.6	67.6	67.6	60	53.2	0	0	---	0.00	29.935 
02:55	67.4	67.4	67.4	61	53.5	0	0	---	0.00	29.935 
03:00	67.3	67.3	67.3	60	52.9	0	0	---	0.00	29.933 
03:05	67.3	67.3	67.3	60	52.9	0	0	---	0.00	29.933 
03:10	67.1	67.1	67.1	61	53.2	0	0	---	0.00	29.933 
03:15	67.1	67.1	67.1	61	53.2	0	0	---	0.00	29.932 
03:20	67.1	67.1	67.1	61	53.2	0	1	90	0.00	29.932 
03:25	66.9	66.9	66.9	61	53.0	0	0	---	0.00	29.932 
03:30	66.9	66.9	66.9	61	53.0	0	0	---	0.00	29.928 
03:35	66.9	66.9	66.9	62	53.4	0	0	---	0.00	29.928 
03:40	66.8	66.8	66.8	62	53.4	0	0	---	0.00	29.928 
03:45	66.8	66.8	66.8	62	53.4	0	0	---	0.00	29.920 
03:50	66.6	66.6	66.6	62	53.2	0	0	---	0.00	29.920 
03:55	66.6	66.6	66.6	62	53.2	0	1	90	0.00	29.920 
04:00	66.6	66.6	66.6	62	53.2	0	1	90	0.00	29.917 
04:05	66.6	66.6	66.6	62	53.2	0	0	---	0.00	29.917 
04:10	66.4	66.4	66.4	62	53.0	0	0	---	0.00	29.917 
04:15	66.4	66.4	66.4	63	53.4	0	0	---	0.00	29.917 
04:20	66.4	66.4	66.4	62	53.0	0	1	90	0.00	29.917 
04:25	66.4	66.4	66.4	62	53.0	0	1	90	0.00	29.917 
04:30	66.4	66.4	66.4	62	53.0	0	0	---	0.00	29.916 
04:35	66.4	66.4	66.4	61	52.5	0	1	90	0.00	29.916 
04:40	66.4	66.4	66.4	62	53.0	0	1	90	0.00	29.916 
04:45	66.4	66.4	66.4	61	52.5	0	1	90	0.00	29.916 
04:50	66.4	66.4	66.4	61	52.5	0	2	90	0.00	29.916 
04:55	66.4	66.4	66.4	61	52.5	0	1	90	0.00	29.916 
05:00	66.4	66.4	66.4	61	52.5	0	2	90	0.00	29.919 
05:05	66.4	66.4	66.4	61	52.5	0	2	90	0.00	29.919 
05:10	66.3	66.3	66.3	62	52.9	0	1	90	0.00	29.919 
05:15	66.3	66.3	66.3	62	52.9	0	0	---	0.00	29.919 
05:20	66.1	66.1	66.1	62	52.7	0	1	90	0.00	29.919 
05:25	66.1	66.1	66.1	62	52.7	0	1	90	0.00	29.919 
05:30	66.0	66.0	66.0	62	52.6	0	1	90	0.00	29.919 
05:35	65.8	65.8	65.8	62	52.4	0	0	---	0.00	29.919 
05:40	65.6	65.6	65.6	62	52.2	0	0	---	0.00	29.919 
05:45	65.3	65.3	65.3	63	52.4	0	0	---	0.00	29.909 
05:50	65.0	65.0	65.0	63	52.1	0	0	---	0.00	29.909 
05:55	64.7	64.7	64.7	64	52.2	0	0	---	0.00	29.909 
06:00	64.5	64.5	64.5	64	52.0	0	0	---	0.00	29.905 
06:05	64.3	64.3	64.3	65	52.3	0	1	90	0.00	29.905 
06:10	64.2	64.2	64.2	65	52.2	0	1	90	0.00	29.905 
06:15	64.0	64.0	64.0	65	52.0	0	0	---	0.00	29.910 
06:20	63.9	63.9	63.9	66	52.3	0	0	---	0.00	29.910 
06:25	63.5	63.5	63.5	67	52.3	0	0	---	0.00	29.910 
06:30	63.4	63.4	63.4	67	52.2	0	0	---	0.00	29.911 
06:35	63.4	63.4	63.4	68	52.6	0	0	---	0.00	29.911 
06:40	63.4	63.4	63.4	68	52.6	0	0	---	0.00	29.911 
06:45	63.4	63.4	63.4	68	52.6	0	0	---	0.00	29.909 
06:50	63.4	63.4	63.4	68	52.6	0	2	90	0.00	29.909 
06:55	63.5	63.5	63.5	69	53.1	0	0	---	0.00	29.909 
07:00	63.7	63.7	63.7	68	52.9	0	1	90	0.00	29.920 
07:05	63.9	63.9	63.9	68	53.1	0	1	90	0.00	29.920 
07:10	64.2	64.2	64.2	68	53.4	0	1	90	0.00	29.920 
07:15	64.3	64.3	64.3	68	53.5	0	1	90	0.00	29.921 
07:20	64.5	64.5	64.5	67	53.3	0	1	90	0.00	29.921 
07:25	64.7	64.7	64.7	67	53.5	0	1	90	0.00	29.921 
07:30	64.7	64.7	64.7	66	53.1	0	2	135	0.00	29.925 
07:35	64.8	64.8	64.8	66	53.2	0	2	0	0.00	29.925 
07:40	64.8	64.8	64.8	66	53.2	0	2	248	0.00	29.925 
07:45	65.0	65.0	65.0	66	53.4	0	1	248	0.00	29.930 
07:50	65.2	65.2	65.2	65	53.1	0	1	248	0.00	29.930 
07:55	65.3	65.3	65.3	65	53.2	0	2	248	0.00	29.930 
08:00	65.6	65.6	65.6	65	53.5	0	2	248	0.00	29.936 
08:05	65.8	65.8	65.8	65	53.7	0	1	248	0.00	29.936 
08:10	66.0	66.0	66.0	65	53.9	0	1	248	0.00	29.936 
08:15	66.1	66.1	66.1	65	54.0	0	1	248	0.00	29.939 
08:20	66.3	66.3	66.3	65	54.2	0	0	---	0.00	29.939 
08:25	66.4	66.4	66.4	64	53.8	0	1	248	0.00	29.939 
08:30	66.8	66.8	66.8	63	53.8	0	1	248	0.00	29.929 
08:35	66.9	66.9	66.9	63	53.9	0	4	248	0.00	29.929 
08:40	67.4	67.4	67.4	62	53.9	0	4	270	0.00	29.929 
08:45	67.6	67.6	67.6	61	53.7	0	3	292	0.00	29.929 
08:50	67.8	67.8	67.8	60	53.4	1	3	270	0.00	29.929 
08:55	68.3	68.3	68.3	60	53.9	1	3	270	0.00	29.929 
09:00	68.8	68.8	68.8	61	54.8	0	2	270	0.00	29.935 
09:05	69.4	69.4	69.4	59	54.4	0	5	270	0.00	29.935 
09:10	69.9	69.9	69.9	58	54.4	0	2	68	0.00	29.935 
09:15	70.3	70.3	70.3	56	53.8	1	3	338	0.00	29.934 
09:20	70.1	70.1	70.1	57	54.1	1	4	292	0.00	29.934 
09:25	70.1	70.1	70.1	57	54.1	2	4	248	0.00	29.934 
09:30	70.1	70.1	70.1	58	54.6	1	2	315	0.00	29.933 
09:35	70.3	70.3	70.3	58	54.8	0	2	315	0.00	29.933 
09:40	70.8	70.8	70.8	58	55.3	1	3	315	0.00	29.933 
09:45	71.6	71.6	71.6	57	55.5	1	3	315	0.00	29.922 
09:50	71.6	71.6	71.6	56	55.1	1	2	292	0.00	29.922 
09:55	71.6	71.6	71.6	55	54.6	1	4	270	0.00	29.922 
10:00	72.0	72.0	72.0	54	54.4	0	3	315	0.00	29.921 
10:05	72.5	72.5	72.5	55	55.4	1	2	248	0.00	29.921 
10:10	72.8	72.8	72.8	54	55.2	1	3	270	0.00	29.921 
10:15	73.0	73.0	73.0	53	54.8	1	3	270	0.00	29.920 
10:20	73.9	73.9	73.9	53	55.7	1	4	270	0.00	29.920 
10:25	74.4	74.4	74.4	51	55.1	1	4	270	0.00	29.920 
10:30	74.6	74.6	74.6	52	55.8	1	5	270	0.00	29.922 
10:35	74.7	74.7	74.7	52	55.9	1	3	45	0.00	29.922 
10:40	74.6	74.6	74.6	49	54.2	2	4	270	0.00	29.922 
10:45	74.9	74.9	74.9	50	55.0	1	3	270	0.00	29.928 
10:50	74.9	74.9	74.9	50	55.0	1	5	270	0.00	29.928 
10:55	75.1	75.1	77.6	52	56.3	1	4	292	0.00	29.928 
11:00	74.9	74.9	74.9	50	55.0	1	4	270	0.00	29.925 
11:05	74.7	74.7	74.7	50	54.8	1	4	292	0.00	29.925 
11:10	74.9	74.9	74.9	50	55.0	1	2	248	0.00	29.925 
11:15	75.1	75.1	77.7	51	55.7	1	3	225	0.00	29.931 
11:20	75.1	75.1	77.7	49	54.6	2	4	270	0.00	29.931 
11:25	74.9	74.9	74.9	50	55.0	2	4	270	0.00	29.931 
11:30	75.3	75.3	77.7	51	55.9	2	4	270	0.00	29.930 
11:35	75.8	75.8	78.0	50	55.8	2	4	248	0.00	29.930 
11:40	76.3	76.3	78.2	48	55.1	2	5	270	0.00	29.930 
11:45	76.1	76.1	78.1	49	55.5	2	4	270	0.00	29.923 
11:50	76.3	76.3	78.2	50	56.3	2	6	292	0.00	29.923 
11:55	76.8	76.8	78.5	51	57.3	1	5	248	0.00	29.923 
12:00	77.2	77.2	78.7	49	56.5	2	6	270	0.00	29.914 
12:05	77.6	77.6	79.1	54	59.6	1	4	270	0.00	29.914 
12:10	78.3	78.3	79.4	49	57.5	1	3	270	0.00	29.914 
12:15	78.6	78.6	79.8	53	60.0	1	4	270	0.00	29.908 
12:20	79.4	79.4	80.5	52	60.2	1	3	0	0.00	29.908 
12:25	79.4	79.4	80.0	46	56.8	1	4	292	0.00	29.908 
12:30	79.0	79.0	79.7	46	56.4	1	4	270	0.00	29.907 
12:35	78.5	78.5	79.4	46	56.0	2	3	270	0.00	29.907 
12:40	78.3	78.3	79.4	49	57.5	2	3	315	0.00	29.907 
12:45	78.3	78.3	79.3	48	57.0	1	3	248	0.00	29.915 
12:50	78.3	78.3	79.4	49	57.5	2	4	270	0.00	29.915 
12:55	78.3	78.3	79.5	51	58.7	0	2	248	0.00	29.915 
13:00	78.3	78.3	79.4	50	58.1	2	5	270	0.00	29.918 
13:05	78.5	78.5	79.6	50	58.3	1	3	270	0.00	29.918 
13:10	78.6	78.6	79.5	48	57.2	1	3	270	0.00	29.918 
13:15	78.8	78.8	79.9	52	59.7	2	5	270	0.00	29.918 
13:20	78.8	78.8	79.8	50	58.6	1	3	270	0.00	29.918 
13:25	78.6	78.6	79.7	50	58.4	1	4	248	0.00	29.918 
13:30	77.9	77.9	79.4	55	60.4	2	5	270	0.00	29.923 
13:35	77.2	77.2	78.7	51	57.6	1	3	270	0.00	29.923 
13:40	77.0	77.0	78.6	51	57.5	1	3	270	0.00	29.923 
13:45	77.0	77.0	78.7	52	58.0	1	4	270	0.00	29.924 
13:50	77.4	77.4	79.0	54	59.4	0	2	248	0.00	29.924 
13:55	78.1	78.1	79.5	53	59.6	1	3	248	0.00	29.924 
14:00	78.5	78.5	79.5	49	57.7	1	3	248	0.00	29.925 
14:05	78.6	78.6	79.7	51	58.9	1	2	248	0.00	29.925 
14:10	78.6	78.6	79.8	52	59.5	1	2	248	0.00	29.925 
14:15	78.8	78.8	79.7	49	58.0	1	2	270	0.00	29.903 
14:20	79.0	79.0	80.0	51	59.3	0	1	270	0.00	29.903 
14:25	78.8	78.8	79.8	50	58.6	0	3	22	0.00	29.903 
14:30	78.6	78.6	79.7	50	58.4	0	2	22	0.00	29.889 
14:35	78.1	78.1	79.4	52	59.0	1	2	0	0.00	29.889 
14:40	77.6	77.6	79.0	51	58.0	1	2	292	0.00	29.889 
14:45	77.6	77.6	79.1	53	59.1	1	3	68	0.00	29.877 
14:50	77.6	77.6	79.1	53	59.1	2	5	90	0.00	29.877 
14:55	77.6	77.6	79.1	53	59.1	0	2	158	0.00	29.877 
15:00	77.4	77.4	79.0	54	59.4	0	1	180	0.00	29.884 
15:05	77.4	77.4	79.0	55	59.9	1	2	180	0.00	29.884 
15:10	77.2	77.2	78.9	56	60.3	0	2	248	0.00	29.884 
15:15	77.0	77.0	78.7	55	59.6	0	2	248	0.00	29.890 
15:20	76.8	76.8	78.6	55	59.4	0	3	270	0.00	29.890 
15:25	76.8	76.8	78.6	56	59.9	0	2	270	0.00	29.890 
15:30	77.0	77.0	78.7	55	59.6	0	2	270	0.00	29.878 
15:35	77.0	77.0	78.7	57	60.6	0	2	270	0.00	29.878 
15:40	77.0	77.0	78.7	55	59.6	0	3	22	0.00	29.878 
15:45	77.4	77.4	79.0	55	59.9	1	3	292	0.00	29.896 
15:50	78.1	78.1	79.5	55	60.6	1	2	292	0.00	29.896 
15:55	78.3	78.3	79.7	54	60.3	1	4	270	0.00	29.896 
16:00	78.1	78.1	79.5	53	59.6	2	4	270	0.00	29.904 
16:05	78.1	78.1	79.5	54	60.1	1	3	248	0.00	29.904 
16:10	78.3	78.3	79.7	55	60.8	1	3	248	0.00	29.904 
16:15	78.3	78.3	79.7	54	60.3	1	4	248	0.00	29.888 
16:20	77.9	77.9	79.3	53	59.4	1	4	248	0.00	29.888 
16:25	77.7	77.7	79.2	55	60.2	1	3	292	0.00	29.888 
16:30	77.7	77.7	79.2	55	60.2	1	3	270	0.00	29.874 
16:35	77.7	77.7	79.2	55	60.2	1	3	270	0.00	29.874 
16:40	77.9	77.9	79.4	56	60.9	0	2	292	0.00	29.874 
16:45	78.3	78.3	79.8	56	61.3	0	3	270	0.00	29.873 
16:50	78.5	78.5	79.8	54	60.4	1	2	270	0.00	29.873 
16:55	78.6	78.6	80.0	55	61.1	0	1	270	0.00	29.873 
17:00	79.4	79.4	80.6	54	61.3	1	5	270	0.00	29.871 
17:05	79.9	79.9	80.8	51	60.1	0	2	112	0.00	29.871 
17:10	80.1	80.1	81.0	51	60.3	0	2	112	0.00	29.871 
17:15	80.7	80.7	81.7	52	61.4	0	1	112	0.00	29.855 
17:20	80.3	80.3	81.1	50	59.9	1	2	135	0.00	29.855 
17:25	79.9	79.9	80.9	52	60.7	1	3	270	0.00	29.855 
17:30	80.1	80.1	81.2	53	61.4	0	1	270	0.00	29.859 
17:35	80.7	80.7	81.4	50	60.3	0	2	270	0.00	29.859 
17:40	80.9	80.9	81.5	49	59.9	1	2	270	0.00	29.859 
17:45	80.7	80.7	81.6	51	60.9	0	2	292	0.00	29.870 
17:50	80.7	80.7	81.3	49	59.7	1	2	270	0.00	29.870 
17:55	80.7	80.7	81.4	50	60.3	1	3	270	0.00	29.870 
18:00	80.7	80.7	81.4	50	60.3	1	3	270	0.00	29.874 
18:05	80.5	80.5	81.3	50	60.1	0	2	270	0.00	29.874 
18:10	80.3	80.3	81.3	52	61.0	0	1	270	0.00	29.874 
18:15	80.1	80.1	81.1	52	60.9	0	1	270	0.00	29.877 
18:20	80.1	80.1	81.0	51	60.3	0	1	270	0.00	29.877 
18:25	80.1	80.1	81.1	52	60.9	0	0	---	0.00	29.877 
18:30	80.1	80.1	81.0	51	60.3	0	2	270	0.00	29.878 
18:35	79.9	79.9	80.8	51	60.1	1	2	270	0.00	29.878 
18:40	80.1	80.1	81.0	51	60.3	0	1	270	0.00	29.878 
18:45	80.1	80.1	81.1	52	60.9	0	1	270	0.00	29.888 
18:50	80.1	80.1	81.1	52	60.9	0	1	270	0.00	29.888 
18:55	79.9	79.9	80.8	51	60.1	0	2	270	0.00	29.888 
19:00	79.8	79.8	80.7	51	60.0	1	3	270	0.00	29.897 
19:05	79.6	79.6	80.6	52	60.4	0	2	270	0.00	29.897 
19:10	79.4	79.4	80.5	52	60.2	0	2	270	0.00	29.897 
19:15	79.2	79.2	80.3	52	60.0	0	2	270	0.00	29.901 
19:20	79.0	79.0	80.2	53	60.4	0	1	270	0.00	29.901 
19:25	78.8	78.8	79.9	52	59.7	0	2	270	0.00	29.901 
19:30	78.8	78.8	80.0	53	60.2	1	3	270	0.00	29.902 
19:35	78.8	78.8	80.0	53	60.2	0	1	315	0.00	29.902 
19:40	78.6	78.6	79.9	54	60.5	0	1	315	0.00	29.902 
19:45	78.6	78.6	79.8	53	60.0	0	3	248	0.00	29.901 
19:50	78.5	78.5	79.8	53	59.9	0	1	248	0.00	29.901 
19:55	78.3	78.3	79.6	53	59.7	0	1	248	0.00	29.901 
20:00	78.3	78.3	79.7	54	60.3	0	0	---	0.00	29.899 
20:05	78.3	78.3	79.7	54	60.3	0	1	248	0.00	29.899 
20:10	78.1	78.1	79.5	55	60.6	0	0	---	0.00	29.899 
20:15	77.9	77.9	79.4	55	60.4	0	0	---	0.00	29.894 
20:20	77.9	77.9	79.4	55	60.4	0	1	248	0.00	29.894 
20:25	77.7	77.7	79.3	56	60.7	0	0	---	0.00	29.894 
20:30	77.6	77.6	79.2	57	61.1	0	1	248	0.00	29.894 
20:35	77.4	77.4	79.1	57	61.0	0	0	---	0.00	29.894 
20:40	77.2	77.2	78.9	57	60.8	0	0	---	0.00	29.894 
20:45	76.8	76.8	78.6	58	60.9	0	0	---	0.00	29.902 
20:50	76.5	76.5	78.4	58	60.6	0	0	---	0.00	29.902 
20:55	76.3	76.3	78.2	59	60.9	0	0	---	0.00	29.902 
21:00	76.0	76.0	78.0	60	61.1	0	0	---	0.00	29.904 
21:05	75.6	75.6	77.7	61	61.2	0	0	---	0.00	29.904 
21:10	75.3	75.3	77.4	63	61.8	0	0	---	0.00	29.904 
21:15	74.9	74.9	74.9	63	61.4	0	0	---	0.00	29.905 
21:20	74.4	74.4	74.4	64	61.4	0	0	---	0.00	29.905 
21:25	74.0	74.0	74.0	65	61.5	0	0	---	0.00	29.905 
21:30	73.9	73.9	73.9	66	61.8	0	0	---	0.00	29.914 
21:35	73.5	73.5	73.5	67	61.9	0	0	---	0.00	29.914 
21:40	73.3	73.3	73.3	68	62.1	0	0	---	0.00	29.914 
21:45	73.2	73.2	73.2	69	62.4	0	0	---	0.00	29.918 
21:50	73.2	73.2	73.2	69	62.4	0	0	---	0.00	29.918 
21:55	73.0	73.0	73.0	69	62.2	0	0	---	0.00	29.918 
22:00	73.0	73.0	73.0	69	62.2	0	0	---	0.00	29.920 
22:05	72.7	72.7	72.7	69	61.9	0	0	---	0.00	29.920 
22:10	72.7	72.7	72.7	69	61.9	0	0	---	0.00	29.920 
22:15	72.5	72.5	72.5	69	61.7	0	0	---	0.00	29.920 
22:20	72.3	72.3	72.3	70	62.0	0	0	---	0.00	29.920 
22:25	72.1	72.1	72.1	70	61.8	0	0	---	0.00	29.920 
22:30	72.1	72.1	72.1	71	62.2	0	0	---	0.00	29.922 
22:35	72.0	72.0	72.0	72	62.5	0	0	---	0.00	29.922 
22:40	71.8	71.8	71.8	72	62.3	0	0	---	0.00	29.922 
22:45	71.6	71.6	71.6	73	62.5	0	0	---	0.00	29.925 
22:50	71.3	71.3	71.3	73	62.2	0	0	---	0.00	29.925 
22:55	71.1	71.1	71.1	74	62.4	0	0	---	0.00	29.925 
23:00	70.9	70.9	70.9	75	62.6	0	0	---	0.00	29.930 
23:05	70.8	70.8	70.8	75	62.5	0	0	---	0.00	29.930 
23:10	70.6	70.6	70.6	75	62.3	0	0	---	0.00	29.930 
23:15	70.6	70.6	70.6	76	62.7	0	0	---	0.00	29.921 
23:20	70.4	70.4	70.4	76	62.5	0	0	---	0.00	29.921 
23:25	70.3	70.3	70.3	77	62.7	0	0	---	0.00	29.921 
23:30	70.1	70.1	70.1	77	62.5	0	0	---	0.00	29.918 
23:35	69.9	69.9	69.9	77	62.3	0	0	---	0.00	29.918 
23:40	69.8	69.8	69.8	77	62.3	0	0	---	0.00	29.918 
23:45	69.6	69.6	69.6	78	62.4	0	0	---	0.00	29.917 
23:50	69.4	69.4	69.4	78	62.2	0	0	---	0.00	29.917 
23:55	69.3	69.3	69.3	78	62.1	0	0	---	0.00	29.917 

CoCoRaHS
IN-AL-39
A2 Web Hosting
Creative Commons License
GoDaddy
search engine by freefind advanced

loaded 2018-11-12 15:23:58 • last modified 2010-11-18 10:43:29
Privacy PolicyDisclaimer
• wx.awcolley.com is powered by PmWiki v.2002016 •
• all content (unless otherwise noted) © 2018 A W Colley